createdAt,value
2022-10-13T00:01:10.767Z,10.10
2022-10-13T00:03:40.208Z,10.00
2022-10-13T00:06:10.203Z,10.10
2022-10-13T00:08:39.115Z,10.00
2022-10-13T00:11:13.732Z,10.00
2022-10-13T00:13:42.265Z,10.00
2022-10-13T00:16:11.460Z,10.00
2022-10-13T00:18:39.741Z,10.00
2022-10-13T00:21:09.039Z,10.00
2022-10-13T00:23:37.338Z,10.00
2022-10-13T00:26:06.875Z,10.00
2022-10-13T00:28:36.748Z,10.00
2022-10-13T00:31:04.924Z,10.00
2022-10-13T00:33:32.826Z,10.00
2022-10-13T00:36:00.674Z,10.00
2022-10-13T00:38:28.531Z,10.00
2022-10-13T00:40:57.716Z,10.00
2022-10-13T00:43:27.995Z,10.10
2022-10-13T00:45:57.217Z,10.10
2022-10-13T00:48:28.239Z,10.10
2022-10-13T00:50:57.500Z,10.10
2022-10-13T00:53:30.253Z,10.10
2022-10-13T00:55:58.405Z,10.10
2022-10-13T00:58:31.725Z,10.10
2022-10-13T01:01:01.089Z,10.10
2022-10-13T01:03:29.385Z,10.10
2022-10-13T01:06:00.348Z,10.10
2022-10-13T01:08:29.932Z,10.10
2022-10-13T01:11:07.728Z,10.10
2022-10-13T01:13:41.866Z,10.10
2022-10-13T01:16:18.015Z,10.10
2022-10-13T01:18:52.578Z,10.10
2022-10-13T01:21:27.335Z,10.10
2022-10-13T01:24:30.831Z,10.10
2022-10-13T01:27:36.228Z,10.10
2022-10-13T01:30:19.539Z,10.10
2022-10-13T01:33:15.066Z,10.10
2022-10-13T01:35:52.471Z,10.10
2022-10-13T01:38:30.386Z,10.10
2022-10-13T01:41:04.648Z,10.10
2022-10-13T01:43:38.204Z,10.00
2022-10-13T01:46:11.013Z,10.00
2022-10-13T01:48:41.099Z,10.00
2022-10-13T01:51:13.391Z,10.10
2022-10-13T01:53:42.324Z,10.00
2022-10-13T01:56:10.311Z,10.00
2022-10-13T01:58:39.056Z,10.00
2022-10-13T02:01:37.431Z,10.00
2022-10-13T02:04:19.425Z,10.00
2022-10-13T02:06:52.828Z,10.00
2022-10-13T02:09:27.797Z,10.00
2022-10-13T02:12:01.366Z,10.00
2022-10-13T02:14:30.944Z,10.00
2022-10-13T02:17:03.604Z,10.00
2022-10-13T02:19:34.214Z,10.00
2022-10-13T02:22:02.666Z,10.00
2022-10-13T02:24:30.565Z,10.00
2022-10-13T02:26:58.966Z,10.00
2022-10-13T02:29:27.052Z,10.00
2022-10-13T02:31:54.946Z,10.00
2022-10-13T02:34:24.477Z,10.00
2022-10-13T02:36:52.338Z,10.00
2022-10-13T02:39:20.201Z,10.00
2022-10-13T02:41:48.096Z,10.10
2022-10-13T02:44:15.969Z,10.10
2022-10-13T02:46:43.837Z,10.10
2022-10-13T02:49:12.127Z,10.00
2022-10-13T02:51:41.363Z,10.10
2022-10-13T02:54:09.470Z,10.10
2022-10-13T02:56:37.465Z,10.10
2022-10-13T02:59:05.548Z,10.10
2022-10-13T03:01:33.676Z,10.10
2022-10-13T03:04:01.532Z,10.10
2022-10-13T03:06:29.391Z,10.10
2022-10-13T03:08:59.205Z,10.10
2022-10-13T03:11:27.240Z,10.10
2022-10-13T03:13:55.211Z,10.10
2022-10-13T03:16:23.269Z,10.10
2022-10-13T03:18:53.170Z,10.10
2022-10-13T03:21:21.074Z,10.10
2022-10-13T03:23:49.404Z,10.10
2022-10-13T03:26:18.856Z,10.10
2022-10-13T03:28:50.177Z,10.10
2022-10-13T03:31:18.856Z,10.10
2022-10-13T03:33:47.003Z,10.10
2022-10-13T03:36:15.033Z,10.10
2022-10-13T03:38:42.963Z,10.10
2022-10-13T03:41:12.650Z,10.10
2022-10-13T03:43:42.672Z,10.10
2022-10-13T03:46:13.593Z,10.10
2022-10-13T03:48:41.526Z,10.10
2022-10-13T03:51:11.162Z,10.10
2022-10-13T03:53:39.231Z,10.10
2022-10-13T03:56:07.885Z,10.10
2022-10-13T03:58:36.069Z,10.10
2022-10-13T04:01:06.506Z,10.20
2022-10-13T04:03:35.070Z,10.20
2022-10-13T04:06:03.516Z,10.20
2022-10-13T04:08:32.158Z,10.20
2022-10-13T04:11:01.025Z,10.20
2022-10-13T04:13:29.003Z,10.30
2022-10-13T04:15:56.938Z,10.20
2022-10-13T04:18:26.152Z,10.30
2022-10-13T04:20:54.006Z,10.30
2022-10-13T04:23:21.922Z,10.30
2022-10-13T04:25:49.776Z,10.30
2022-10-13T04:28:18.557Z,10.30
2022-10-13T04:30:49.414Z,10.30
2022-10-13T04:33:17.719Z,10.30
2022-10-13T04:35:46.959Z,10.30
2022-10-13T04:38:14.889Z,10.30
2022-10-13T04:40:42.714Z,10.30
2022-10-13T04:43:10.547Z,10.30
2022-10-13T04:45:38.388Z,10.30
2022-10-13T04:48:06.536Z,10.30
2022-10-13T04:50:34.411Z,10.30
2022-10-13T04:53:03.609Z,10.30
2022-10-13T04:55:31.483Z,10.30
2022-10-13T04:57:59.341Z,10.40
2022-10-13T05:00:27.357Z,10.40
2022-10-13T05:02:55.246Z,10.40
2022-10-13T05:05:23.121Z,10.40
2022-10-13T05:07:50.971Z,10.40
2022-10-13T05:10:20.271Z,10.40
2022-10-13T05:12:48.124Z,10.40
2022-10-13T05:15:16.176Z,10.50
2022-10-13T05:17:44.071Z,10.40
2022-10-13T05:20:12.908Z,10.40
2022-10-13T05:22:40.749Z,10.40
2022-10-13T05:25:09.238Z,10.40
2022-10-13T05:27:38.509Z,10.40
2022-10-13T05:30:07.160Z,10.40
2022-10-13T05:32:36.319Z,10.40
2022-10-13T05:35:04.441Z,10.40
2022-10-13T05:37:32.291Z,10.40
2022-10-13T05:40:00.127Z,10.40
2022-10-13T05:42:30.451Z,10.40
2022-10-13T05:44:59.815Z,10.40
2022-10-13T05:47:28.303Z,10.40
2022-10-13T05:49:56.407Z,10.40
2022-10-13T05:52:26.480Z,10.40
2022-10-13T05:54:57.657Z,10.40
2022-10-13T05:57:29.754Z,10.40
2022-10-13T06:00:03.211Z,10.40
2022-10-13T06:02:37.762Z,10.40
2022-10-13T06:05:08.566Z,10.40
2022-10-13T06:07:36.446Z,10.40
2022-10-13T06:10:04.732Z,10.40
2022-10-13T06:12:32.561Z,10.50
2022-10-13T06:15:01.822Z,10.50
2022-10-13T06:17:29.684Z,10.50
2022-10-13T06:19:57.581Z,10.50
2022-10-13T06:22:25.515Z,10.50
2022-10-13T06:24:53.431Z,10.60
2022-10-13T06:27:21.250Z,10.60
2022-10-13T06:29:49.132Z,10.60
2022-10-13T06:32:18.782Z,10.60
2022-10-13T06:34:46.863Z,10.60
2022-10-13T06:37:14.732Z,10.60
2022-10-13T06:39:42.630Z,10.60
2022-10-13T06:42:10.702Z,10.70
2022-10-13T06:44:38.597Z,10.70
2022-10-13T06:47:06.718Z,10.70
2022-10-13T06:49:35.940Z,10.70
2022-10-13T06:52:04.740Z,10.80
2022-10-13T06:54:32.671Z,10.80
2022-10-13T06:57:00.559Z,10.80
2022-10-13T06:59:28.467Z,10.80
2022-10-13T07:01:56.450Z,10.90
2022-10-13T07:04:25.829Z,10.90
2022-10-13T07:06:57.205Z,10.90
2022-10-13T07:09:25.117Z,11.00
2022-10-13T07:11:53.064Z,11.10
2022-10-13T07:14:20.971Z,11.10
2022-10-13T07:16:49.155Z,11.20
2022-10-13T07:19:17.105Z,11.20
2022-10-13T07:21:44.982Z,11.30
2022-10-13T07:24:14.252Z,11.40
2022-10-13T07:26:42.412Z,11.40
2022-10-13T07:29:10.731Z,11.50
2022-10-13T07:31:38.782Z,11.60
2022-10-13T07:34:08.390Z,11.80
2022-10-13T07:36:37.186Z,11.90
2022-10-13T07:39:05.364Z,12.10
2022-10-13T07:41:34.826Z,12.30
2022-10-13T07:44:02.941Z,12.40
2022-10-13T07:46:30.801Z,12.50
2022-10-13T07:48:58.840Z,12.70
2022-10-13T07:51:26.815Z,12.90
2022-10-13T07:53:55.232Z,13.00
2022-10-13T07:56:23.195Z,13.10
2022-10-13T07:58:52.423Z,13.20
2022-10-13T08:01:20.393Z,13.30
2022-10-13T08:03:50.445Z,13.40
2022-10-13T08:06:18.771Z,13.50
2022-10-13T08:08:46.749Z,13.50
2022-10-13T08:11:17.229Z,13.60
2022-10-13T08:13:48.783Z,13.70
2022-10-13T08:16:18.274Z,13.80
2022-10-13T08:18:46.842Z,13.80
2022-10-13T08:24:06.070Z,14.00
2022-10-13T08:26:34.127Z,14.10
2022-10-13T08:29:20.242Z,14.30
2022-10-13T08:31:51.363Z,14.50
2022-10-13T08:34:19.504Z,14.70
2022-10-13T08:36:47.635Z,14.90
2022-10-13T08:39:15.793Z,15.10
2022-10-13T08:41:45.005Z,15.20
2022-10-13T08:47:18.406Z,15.20
2022-10-13T08:49:46.594Z,15.20
2022-10-13T08:52:20.786Z,15.10
2022-10-13T08:54:49.429Z,15.10
2022-10-13T08:57:17.615Z,15.00
2022-10-13T08:59:45.963Z,14.90
2022-10-13T09:02:22.553Z,14.90
2022-10-13T09:04:53.631Z,14.90
2022-10-13T09:07:25.645Z,15.00
2022-10-13T09:09:54.833Z,15.00
2022-10-13T09:12:25.115Z,15.00
2022-10-13T09:15:01.469Z,15.00
2022-10-13T09:17:33.101Z,15.10
2022-10-13T09:20:03.145Z,15.10
2022-10-13T09:22:33.833Z,15.10
2022-10-13T09:25:20.525Z,15.10
2022-10-13T09:27:51.547Z,15.10
2022-10-13T09:30:27.569Z,15.30
2022-10-13T09:33:15.585Z,15.50
2022-10-13T09:35:46.152Z,15.70
2022-10-13T09:38:16.609Z,15.90
2022-10-13T09:40:56.624Z,16.20
2022-10-13T09:43:31.101Z,16.50
2022-10-13T09:46:00.434Z,16.80
2022-10-13T09:48:31.741Z,16.90
2022-10-13T09:50:59.742Z,17.00
2022-10-13T09:53:32.268Z,17.20
2022-10-13T09:56:22.632Z,17.40
2022-10-13T09:58:56.326Z,17.70
2022-10-13T10:01:27.632Z,17.90
2022-10-13T10:03:58.785Z,17.90
2022-10-13T10:06:27.937Z,18.00
2022-10-13T10:09:03.762Z,18.30
2022-10-13T10:11:38.537Z,19.20
2022-10-13T10:14:18.071Z,20.40
2022-10-13T10:16:51.002Z,21.80
2022-10-13T10:19:25.817Z,23.20
2022-10-13T10:22:04.106Z,24.20
2022-10-13T10:24:39.540Z,25.00
2022-10-13T10:27:14.740Z,25.60
2022-10-13T10:29:50.974Z,25.30
2022-10-13T10:32:40.725Z,24.80
2022-10-13T10:35:18.840Z,24.50
2022-10-13T10:37:58.723Z,24.50
2022-10-13T10:40:36.442Z,24.80
2022-10-13T10:43:31.752Z,25.10
2022-10-13T10:46:01.173Z,25.30
2022-10-13T10:48:35.741Z,25.50
2022-10-13T10:51:08.683Z,25.50
2022-10-13T10:53:43.711Z,25.30
2022-10-13T10:56:20.634Z,25.20
2022-10-13T10:58:55.201Z,24.90
2022-10-13T11:01:34.278Z,24.50
2022-10-13T11:04:35.677Z,24.10
2022-10-13T11:07:05.680Z,23.60
2022-10-13T11:10:02.405Z,23.10
2022-10-13T11:12:49.568Z,22.60
2022-10-13T11:15:24.841Z,22.40
2022-10-13T11:17:53.293Z,22.10
2022-10-13T11:20:50.103Z,21.80
2022-10-13T11:23:34.200Z,21.60
2022-10-13T11:26:39.523Z,21.30
2022-10-13T11:29:18.055Z,21.00
2022-10-13T11:31:54.597Z,20.80
2022-10-13T11:34:29.380Z,20.60
2022-10-13T11:36:59.136Z,20.50
2022-10-13T11:40:00.405Z,20.40
2022-10-13T11:42:45.774Z,20.30
2022-10-13T11:45:25.705Z,20.10
2022-10-13T11:48:28.171Z,20.00
2022-10-13T11:51:10.336Z,19.90
2022-10-13T11:53:50.976Z,19.80
2022-10-13T11:56:33.864Z,19.70
2022-10-13T11:59:01.801Z,19.70
2022-10-13T12:01:29.765Z,19.60
2022-10-13T12:03:57.663Z,19.50
2022-10-13T12:06:34.355Z,19.40
2022-10-13T12:09:05.419Z,19.30
2022-10-13T12:11:38.329Z,19.20
2022-10-13T12:14:09.182Z,19.20
2022-10-13T12:16:37.079Z,19.10
2022-10-13T12:19:10.159Z,19.20
2022-10-13T12:21:51.194Z,19.20
2022-10-13T12:24:19.134Z,19.30
2022-10-13T12:26:48.378Z,19.30
2022-10-13T12:29:17.250Z,19.30
2022-10-13T12:31:47.279Z,19.30
2022-10-13T12:34:27.456Z,19.30
2022-10-13T12:36:59.393Z,19.20
2022-10-13T12:39:29.112Z,19.10
2022-10-13T12:42:00.455Z,19.00
2022-10-13T12:44:31.146Z,19.00
2022-10-13T12:47:00.450Z,19.00
2022-10-13T12:49:30.042Z,18.90
2022-10-13T12:52:08.034Z,18.90
2022-10-13T12:54:38.360Z,18.90
2022-10-13T12:57:18.616Z,18.80
2022-10-13T12:59:46.707Z,18.80
2022-10-13T13:02:22.813Z,18.80
2022-10-13T13:04:50.952Z,18.80
2022-10-13T13:07:33.172Z,18.80
2022-10-13T13:10:03.419Z,18.90
2022-10-13T13:12:32.678Z,18.90
2022-10-13T13:15:20.406Z,18.90
2022-10-13T13:18:03.805Z,18.90
2022-10-13T13:20:34.674Z,18.90
2022-10-13T13:23:02.940Z,18.90
2022-10-13T13:25:30.842Z,18.80
2022-10-13T13:28:00.071Z,18.70
2022-10-13T13:30:28.001Z,18.60
2022-10-13T13:32:55.903Z,18.60
2022-10-13T13:35:23.809Z,18.50
2022-10-13T13:37:53.004Z,18.30
2022-10-13T13:40:23.361Z,18.30
2022-10-13T13:42:51.773Z,18.20
2022-10-13T13:45:24.024Z,18.10
2022-10-13T13:47:52.188Z,18.00
2022-10-13T13:50:23.140Z,18.00
2022-10-13T13:52:51.152Z,17.90
2022-10-13T13:55:19.308Z,17.90
2022-10-13T13:57:47.237Z,17.80
2022-10-13T14:00:16.341Z,17.70
2022-10-13T14:02:45.992Z,17.70
2022-10-13T14:05:14.501Z,17.60
2022-10-13T14:07:42.858Z,17.60
2022-10-13T14:10:11.730Z,17.60
2022-10-13T14:12:39.819Z,17.50
2022-10-13T14:15:08.992Z,17.40
2022-10-13T14:17:37.141Z,17.40
2022-10-13T14:20:07.638Z,17.40
2022-10-13T14:22:37.741Z,17.30
2022-10-13T14:25:06.549Z,17.30
2022-10-13T14:27:35.024Z,17.30
2022-10-13T14:30:03.037Z,17.20
2022-10-13T14:32:31.089Z,17.10
2022-10-13T14:34:58.986Z,17.10
2022-10-13T14:37:33.022Z,17.00
2022-10-13T14:40:01.643Z,16.90
2022-10-13T14:42:29.600Z,16.90
2022-10-13T14:44:57.449Z,16.80
2022-10-13T14:47:25.393Z,16.80
2022-10-13T14:49:53.339Z,16.70
2022-10-13T14:52:21.256Z,16.70
2022-10-13T14:54:50.724Z,16.70
2022-10-13T14:57:19.489Z,16.60
2022-10-13T14:59:48.017Z,16.60
2022-10-13T15:02:17.324Z,16.60
2022-10-13T15:04:45.221Z,16.50
2022-10-13T15:07:13.069Z,16.50
2022-10-13T15:09:52.895Z,16.40
2022-10-13T15:12:30.228Z,16.40
2022-10-13T15:14:58.196Z,16.40
2022-10-13T15:17:26.059Z,16.40
2022-10-13T15:19:53.995Z,16.30
2022-10-13T15:22:22.137Z,16.30
2022-10-13T15:24:50.278Z,16.30
2022-10-13T15:27:18.190Z,16.30
2022-10-13T15:29:47.480Z,16.20
2022-10-13T15:32:18.138Z,16.10
2022-10-13T15:34:46.612Z,16.10
2022-10-13T15:37:14.744Z,16.00
2022-10-13T15:39:42.606Z,16.00
2022-10-13T15:42:12.294Z,16.00
2022-10-13T15:44:57.362Z,15.90
2022-10-13T15:47:48.018Z,15.90
2022-10-13T15:50:39.356Z,15.80
2022-10-13T15:53:27.956Z,15.80
2022-10-13T15:56:16.612Z,15.70
2022-10-13T15:59:05.122Z,15.70
2022-10-13T16:01:53.385Z,15.60
2022-10-13T16:04:42.938Z,15.60
2022-10-13T16:07:31.198Z,15.50
2022-10-13T16:10:19.760Z,15.50
2022-10-13T16:13:08.294Z,15.40
2022-10-13T16:15:59.954Z,15.40
2022-10-13T16:18:30.735Z,15.40
2022-10-13T16:21:00.062Z,15.30
2022-10-13T16:23:28.004Z,15.30
2022-10-13T16:25:55.875Z,15.30
2022-10-13T16:28:23.770Z,15.30
2022-10-13T16:30:51.666Z,15.20
2022-10-13T16:33:19.545Z,15.20
2022-10-13T16:35:47.441Z,15.20
2022-10-13T16:38:16.682Z,15.20
2022-10-13T16:40:44.540Z,15.20
2022-10-13T16:43:12.442Z,15.20
2022-10-13T16:45:59.163Z,15.20
2022-10-13T16:48:28.366Z,15.20
2022-10-13T16:50:56.285Z,15.20
2022-10-13T16:53:25.718Z,15.20
2022-10-13T16:55:53.604Z,15.30
2022-10-13T16:58:21.509Z,15.20
2022-10-13T17:00:49.414Z,15.30
2022-10-13T17:03:17.415Z,15.30
2022-10-13T17:05:45.264Z,15.30
2022-10-13T17:08:13.143Z,15.30
2022-10-13T17:10:42.407Z,15.30
2022-10-13T17:13:10.351Z,15.30
2022-10-13T17:15:38.265Z,15.30
2022-10-13T17:18:06.957Z,15.30
2022-10-13T17:20:34.967Z,15.30
2022-10-13T17:23:02.876Z,15.30
2022-10-13T17:25:30.783Z,15.30
2022-10-13T17:28:00.104Z,15.30
2022-10-13T17:30:28.037Z,15.20
2022-10-13T17:32:57.135Z,15.20
2022-10-13T17:35:27.496Z,15.20
2022-10-13T17:37:55.663Z,15.20
2022-10-13T17:40:23.647Z,15.20
2022-10-13T17:42:51.534Z,15.20
2022-10-13T17:45:21.359Z,15.20
2022-10-13T17:47:49.908Z,15.20
2022-10-13T17:50:18.716Z,15.20
2022-10-13T17:52:46.703Z,15.20
2022-10-13T17:55:14.862Z,15.20
2022-10-13T17:57:42.901Z,15.10
2022-10-13T18:00:12.067Z,15.10
2022-10-13T18:02:41.379Z,15.10
2022-10-13T18:05:09.693Z,15.10
2022-10-13T18:07:37.704Z,15.00
2022-10-13T18:10:06.502Z,15.00
2022-10-13T18:12:34.462Z,14.90
2022-10-13T18:15:03.785Z,14.90
2022-10-13T18:17:31.812Z,14.80
2022-10-13T18:20:01.097Z,14.80
2022-10-13T18:22:29.169Z,14.80
2022-10-13T18:24:57.397Z,14.70
2022-10-13T18:27:25.460Z,14.80
2022-10-13T18:29:53.412Z,14.70
2022-10-13T18:32:21.310Z,14.70
2022-10-13T18:34:49.358Z,14.70
2022-10-13T18:37:18.871Z,14.60
2022-10-13T18:39:48.115Z,14.60
2022-10-13T18:42:16.188Z,14.60
2022-10-13T18:44:44.096Z,14.60
2022-10-13T18:47:12.146Z,14.60
2022-10-13T18:49:40.028Z,14.60
2022-10-13T18:52:07.976Z,14.50
2022-10-13T18:54:37.328Z,14.50
2022-10-13T18:57:05.490Z,14.50
2022-10-13T18:59:36.699Z,14.50
2022-10-13T19:02:04.707Z,14.50
2022-10-13T19:04:32.693Z,14.50
2022-10-13T19:07:00.894Z,14.50
2022-10-13T19:09:30.196Z,14.50
2022-10-13T19:11:59.515Z,14.40
2022-10-13T19:14:27.520Z,14.40
2022-10-13T19:16:59.484Z,14.40
2022-10-13T19:19:29.868Z,14.40
2022-10-13T19:21:57.893Z,14.40
2022-10-13T19:24:25.811Z,14.40
2022-10-13T19:26:53.709Z,14.40
2022-10-13T19:29:23.215Z,14.40
2022-10-13T19:31:51.193Z,14.40
2022-10-13T19:34:19.137Z,14.40
2022-10-13T19:36:48.112Z,14.30
2022-10-13T19:39:18.352Z,14.30
2022-10-13T19:41:47.757Z,14.30
2022-10-13T19:44:16.568Z,14.30
2022-10-13T19:46:46.807Z,14.30
2022-10-13T19:49:16.568Z,14.30
2022-10-13T19:51:44.795Z,14.20
2022-10-13T19:54:13.558Z,14.30
2022-10-13T19:56:41.465Z,14.30
2022-10-13T19:59:09.369Z,14.20
2022-10-13T20:01:39.853Z,14.20
2022-10-13T20:04:10.083Z,14.20
2022-10-13T20:06:38.490Z,14.20
2022-10-13T20:09:06.500Z,14.20
2022-10-13T20:11:34.575Z,14.20
2022-10-13T20:14:02.630Z,14.20
2022-10-13T20:16:30.746Z,14.10
2022-10-13T20:19:00.950Z,14.20
2022-10-13T20:21:31.999Z,14.10
2022-10-13T20:24:00.264Z,14.10
2022-10-13T20:26:28.490Z,14.10
2022-10-13T20:28:58.067Z,14.10
2022-10-13T20:31:27.053Z,14.10
2022-10-13T20:33:56.313Z,14.10
2022-10-13T20:36:26.538Z,14.10
2022-10-13T20:38:56.439Z,14.10
2022-10-13T20:41:26.271Z,14.10
2022-10-13T20:43:56.682Z,14.10
2022-10-13T20:46:25.481Z,14.10
2022-10-13T20:49:11.926Z,14.10
2022-10-13T20:51:41.901Z,14.10
2022-10-13T20:54:12.249Z,14.10
2022-10-13T20:56:40.292Z,14.10
2022-10-13T20:59:10.403Z,14.10
2022-10-13T21:01:39.038Z,14.10
2022-10-13T21:04:07.147Z,14.10
2022-10-13T21:06:36.019Z,14.10
2022-10-13T21:09:05.023Z,14.10
2022-10-13T21:11:34.762Z,14.10
2022-10-13T21:14:06.379Z,14.10
2022-10-13T21:16:35.097Z,14.10
2022-10-13T21:19:03.694Z,14.10
2022-10-13T21:21:33.531Z,14.10
2022-10-13T21:24:03.496Z,14.00
2022-10-13T21:26:32.933Z,14.00
2022-10-13T21:29:03.680Z,14.00
2022-10-13T21:31:31.906Z,14.00
2022-10-13T21:33:59.920Z,14.00
2022-10-13T21:36:29.833Z,14.00
2022-10-13T21:38:59.568Z,14.00
2022-10-13T21:41:28.554Z,14.00
2022-10-13T21:43:56.922Z,14.00
2022-10-13T21:46:28.272Z,14.00
2022-10-13T21:48:58.395Z,14.00
2022-10-13T21:51:29.271Z,14.00
2022-10-13T21:53:58.790Z,14.00
2022-10-13T21:56:27.901Z,14.00
2022-10-13T21:58:56.232Z,14.00
2022-10-13T22:01:26.073Z,14.00
2022-10-13T22:03:56.214Z,13.90
2022-10-13T22:06:24.981Z,13.90
2022-10-13T22:08:54.480Z,13.90
2022-10-13T22:11:23.905Z,13.90
2022-10-13T22:13:52.233Z,13.90
2022-10-13T22:16:22.321Z,13.90
2022-10-13T22:18:52.824Z,13.90
2022-10-13T22:21:22.625Z,13.90
2022-10-13T22:23:50.547Z,13.90
2022-10-13T22:26:20.031Z,13.90
2022-10-13T22:28:51.470Z,13.80
2022-10-13T22:31:19.848Z,13.80
2022-10-13T22:33:53.467Z,13.80
2022-10-13T22:36:24.587Z,13.70
2022-10-13T22:38:54.166Z,13.80
2022-10-13T22:41:22.801Z,13.70
2022-10-13T22:43:51.218Z,13.70
2022-10-13T22:46:21.048Z,13.70
2022-10-13T22:48:49.543Z,13.70
2022-10-13T22:51:19.630Z,13.70
2022-10-13T22:53:50.194Z,13.70
2022-10-13T22:56:20.449Z,13.70
2022-10-13T22:58:50.854Z,13.70
2022-10-13T23:01:19.481Z,13.70
2022-10-13T23:03:49.133Z,13.60
2022-10-13T23:06:18.922Z,13.60
2022-10-13T23:08:48.289Z,13.60
2022-10-13T23:11:16.376Z,13.60
2022-10-13T23:13:44.468Z,13.60
2022-10-13T23:16:14.854Z,13.50
2022-10-13T23:18:43.158Z,13.50
2022-10-13T23:21:14.113Z,13.50
2022-10-13T23:23:42.265Z,13.50
2022-10-13T23:26:14.578Z,13.50
2022-10-13T23:28:43.288Z,13.50
2022-10-13T23:31:14.950Z,13.50
2022-10-13T23:33:43.504Z,13.50
2022-10-13T23:36:15.928Z,13.50
2022-10-13T23:38:44.243Z,13.50
2022-10-13T23:41:15.783Z,13.50
2022-10-13T23:43:44.291Z,13.50
2022-10-13T23:46:12.678Z,13.50
2022-10-13T23:48:40.889Z,13.50
2022-10-13T23:51:10.871Z,13.50
2022-10-13T23:53:39.587Z,13.50
2022-10-13T23:56:08.891Z,13.50
2022-10-13T23:58:39.580Z,13.50
